Milnesand, New Mexico
Current Conditions -  °F | °C
As of 10:58 AM on Sunday 25 Jan 2015 (Local Time) from KCVS Reporting Station
Clear Clear  
Wind Chill: 37°   Ceiling: Unl
Heat Index: 42°   Visibility: 10mi
Dew Point: 29°   Wind: 8mph
Humidity: 60%   Direction: 290°WNW
Pressure: 30.28"   Gusts: NA
Location:  33.64°N, 103.34°W
Report Text: KCVS 251758Z AUTO 29007KT 10SM CLR 06/M02 A3028 RMK AO2 SLP255 T00561016 10056 21002 51013 VISNO RWY22 $
Loading
Personal Weather Stations






























Interactive Weather Map New forecast layout! Learn more

10-Day Weather Forecast

Advertisements
Track Severe Weather on mobile